createdAt,value
2022-10-01T00:00:05.572Z,100843.83
2022-10-01T00:03:02.022Z,100840.65
2022-10-01T00:05:33.892Z,100844.19
2022-10-01T00:08:05.763Z,100841.73
2022-10-01T00:10:40.189Z,100838.55
2022-10-01T00:13:13.255Z,100834.80
2022-10-01T00:15:45.119Z,100835.10
2022-10-01T00:18:16.930Z,100829.95
2022-10-01T00:20:48.852Z,100828.53
2022-10-01T00:23:20.875Z,100826.38
2022-10-01T00:25:53.601Z,100829.02
2022-10-01T00:28:26.381Z,100826.33
2022-10-01T00:30:59.108Z,100826.02
2022-10-01T00:33:31.128Z,100822.48
2022-10-01T00:36:03.283Z,100821.20
2022-10-01T00:38:36.716Z,100820.16
2022-10-01T00:41:09.301Z,100816.42
2022-10-01T00:43:46.863Z,100819.88
2022-10-01T00:46:26.097Z,100821.39
2022-10-01T00:49:02.930Z,100818.73
2022-10-01T00:51:40.736Z,100818.73
2022-10-01T00:54:19.221Z,100823.19
2022-10-01T00:56:53.829Z,100824.54
2022-10-01T00:59:25.765Z,100823.36
2022-10-01T01:01:58.370Z,100823.66
2022-10-01T01:04:30.973Z,100824.54
2022-10-01T01:07:07.195Z,100827.24
2022-10-01T01:09:44.590Z,100826.89
2022-10-01T01:12:32.816Z,100827.54
2022-10-01T01:15:15.183Z,100827.73
2022-10-01T01:17:56.424Z,100830.70
2022-10-01T01:20:51.974Z,100833.35
2022-10-01T01:23:47.151Z,100834.31
2022-10-01T01:26:31.691Z,100829.75
2022-10-01T01:29:07.840Z,100829.52
2022-10-01T01:31:46.397Z,100829.38
2022-10-01T01:34:23.178Z,100829.02
2022-10-01T01:36:59.853Z,100834.12
2022-10-01T01:39:35.607Z,100835.37
2022-10-01T01:42:11.243Z,100835.05
2022-10-01T01:44:46.736Z,100837.42
2022-10-01T01:47:22.107Z,100841.00
2022-10-01T01:49:55.235Z,100841.07
2022-10-01T01:52:27.160Z,100843.19
2022-10-01T01:55:00.169Z,100837.46
2022-10-01T01:57:33.649Z,100839.98
2022-10-01T02:00:06.548Z,100838.08
2022-10-01T02:02:42.099Z,100833.77
2022-10-01T02:05:17.868Z,100837.16
2022-10-01T02:08:17.741Z,100835.95
2022-10-01T02:11:02.709Z,100834.35
2022-10-01T02:13:44.356Z,100840.95
2022-10-01T02:16:24.710Z,100837.90
2022-10-01T02:19:02.225Z,100839.75
2022-10-01T02:21:39.772Z,100835.00
2022-10-01T02:24:16.385Z,100834.29
2022-10-01T02:26:51.413Z,100832.88
2022-10-01T02:29:25.127Z,100831.30
2022-10-01T02:31:58.624Z,100827.29
2022-10-01T02:34:32.193Z,100826.82
2022-10-01T02:37:07.396Z,100830.97
2022-10-01T02:39:42.056Z,100824.63
2022-10-01T02:42:17.677Z,100820.69
2022-10-01T02:44:52.402Z,100819.64
2022-10-01T02:47:27.828Z,100819.07
2022-10-01T02:49:59.779Z,100824.30
2022-10-01T02:52:39.228Z,100824.46
2022-10-01T02:55:15.597Z,100822.48
2022-10-01T02:57:48.110Z,100812.40
2022-10-01T03:00:21.849Z,100801.45
2022-10-01T03:02:55.455Z,100800.48
2022-10-01T03:05:29.879Z,100797.21
2022-10-01T03:08:01.899Z,100797.84
2022-10-01T03:10:33.773Z,100796.70
2022-10-01T03:13:06.624Z,100799.28
2022-10-01T03:15:38.451Z,100793.05
2022-10-01T03:18:10.562Z,100783.27
2022-10-01T03:20:44.791Z,100777.00
2022-10-01T03:23:16.583Z,100774.91
2022-10-01T03:25:48.360Z,100767.84
2022-10-01T03:28:20.241Z,100766.54
2022-10-01T03:30:52.258Z,100766.81
2022-10-01T03:33:24.207Z,100760.71
2022-10-01T03:35:56.070Z,100754.39
2022-10-01T03:38:27.905Z,100754.80
2022-10-01T03:40:59.753Z,100752.69
2022-10-01T03:43:31.711Z,100754.58
2022-10-01T03:46:03.858Z,100753.46
2022-10-01T03:48:36.966Z,100751.72
2022-10-01T03:51:09.156Z,100750.09
2022-10-01T03:53:40.965Z,100749.06
2022-10-01T03:56:12.989Z,100747.27
2022-10-01T03:58:44.818Z,100747.81
2022-10-01T04:01:16.669Z,100748.06
2022-10-01T04:03:49.233Z,100748.89
2022-10-01T04:06:21.347Z,100747.63
2022-10-01T04:08:53.108Z,100747.17
2022-10-01T04:11:26.075Z,100745.60
2022-10-01T04:13:58.694Z,100742.75
2022-10-01T04:16:31.103Z,100742.42
2022-10-01T04:19:03.623Z,100743.53
2022-10-01T04:21:37.062Z,100746.36
2022-10-01T04:24:09.292Z,100749.54
2022-10-01T04:26:41.221Z,100748.02
2022-10-01T04:29:14.515Z,100750.35
2022-10-01T04:31:46.625Z,100751.27
2022-10-01T04:34:18.530Z,100745.33
2022-10-01T04:36:50.386Z,100746.29
2022-10-01T04:39:22.255Z,100744.41
2022-10-01T04:41:54.440Z,100747.77
2022-10-01T04:45:40.924Z,100751.30
2022-10-01T04:47:52.280Z,100746.78
2022-10-01T04:50:25.910Z,100746.28
2022-10-01T04:52:58.146Z,100746.70
2022-10-01T04:55:30.220Z,100750.73
2022-10-01T04:58:02.001Z,100750.90
2022-10-01T05:00:33.877Z,100749.33
2022-10-01T05:03:05.707Z,100749.87
2022-10-01T05:05:37.611Z,100751.00
2022-10-01T05:08:09.439Z,100755.91
2022-10-01T05:10:41.955Z,100752.31
2022-10-01T05:13:13.814Z,100757.17
2022-10-01T05:15:45.990Z,100756.59
2022-10-01T05:18:17.940Z,100754.96
2022-10-01T05:20:50.095Z,100758.44
2022-10-01T05:23:21.921Z,100759.11
2022-10-01T05:25:53.800Z,100763.64
2022-10-01T05:28:27.563Z,100762.96
2022-10-01T05:31:01.776Z,100763.86
2022-10-01T05:33:34.559Z,100762.69
2022-10-01T05:36:09.088Z,100759.18
2022-10-01T05:38:42.475Z,100753.10
2022-10-01T05:41:14.649Z,100750.71
2022-10-01T05:43:48.736Z,100751.50
2022-10-01T05:46:20.584Z,100752.09
2022-10-01T05:48:52.874Z,100754.65
2022-10-01T05:51:24.788Z,100757.66
2022-10-01T05:53:59.041Z,100753.34
2022-10-01T05:56:31.005Z,100748.88
2022-10-01T05:59:02.909Z,100747.20
2022-10-01T06:01:34.878Z,100741.55
2022-10-01T06:04:06.945Z,100735.82
2022-10-01T06:06:38.985Z,100737.44
2022-10-01T06:09:11.182Z,100738.35
2022-10-01T06:11:43.171Z,100743.00
2022-10-01T06:14:15.041Z,100746.63
2022-10-01T06:16:47.975Z,100746.52
2022-10-01T06:19:19.762Z,100745.96
2022-10-01T06:21:52.587Z,100744.84
2022-10-01T06:24:26.891Z,100738.46
2022-10-01T06:26:58.681Z,100731.33
2022-10-01T06:29:30.518Z,100728.27
2022-10-01T06:32:02.680Z,100724.17
2022-10-01T06:34:34.454Z,100718.54
2022-10-01T06:37:06.219Z,100714.23
2022-10-01T06:39:38.060Z,100705.77
2022-10-01T06:42:09.897Z,100705.75
2022-10-01T06:44:42.637Z,100703.33
2022-10-01T06:47:14.518Z,100701.23
2022-10-01T06:49:47.783Z,100697.39
2022-10-01T06:52:38.100Z,100699.67
2022-10-01T06:55:16.368Z,100694.85
2022-10-01T06:57:50.362Z,100692.30
2022-10-01T07:00:22.289Z,100688.35
2022-10-01T07:02:55.766Z,100685.00
2022-10-01T07:05:30.044Z,100681.09
2022-10-01T07:08:02.160Z,100680.75
2022-10-01T07:10:35.543Z,100683.55
2022-10-01T07:13:12.160Z,100683.69
2022-10-01T07:15:44.941Z,100685.27
2022-10-01T07:18:17.049Z,100683.22
2022-10-01T07:20:48.930Z,100675.47
2022-10-01T07:23:22.149Z,100679.11
2022-10-01T07:25:54.150Z,100672.73
2022-10-01T07:28:27.452Z,100666.52
2022-10-01T07:31:06.775Z,100662.38
2022-10-01T07:33:38.957Z,100659.98
2022-10-01T07:36:13.144Z,100658.76
2022-10-01T07:38:46.038Z,100652.09
2022-10-01T07:41:18.233Z,100650.27
2022-10-01T07:43:50.077Z,100648.70
2022-10-01T07:46:21.849Z,100647.41
2022-10-01T07:48:54.212Z,100643.77
2022-10-01T07:51:26.877Z,100637.58
2022-10-01T07:53:59.298Z,100635.85
2022-10-01T07:56:31.239Z,100628.61
2022-10-01T07:59:03.039Z,100629.47
2022-10-01T08:01:35.298Z,100622.48
2022-10-01T08:04:22.011Z,100614.82
2022-10-01T08:06:54.369Z,100614.63
2022-10-01T08:09:26.287Z,100606.40
2022-10-01T08:11:58.231Z,100609.77
2022-10-01T08:14:31.450Z,100604.32
2022-10-01T08:17:03.264Z,100598.19
2022-10-01T08:19:36.079Z,100596.34
2022-10-01T08:22:08.333Z,100594.69
2022-10-01T08:24:40.101Z,100592.89
2022-10-01T08:27:11.911Z,100592.27
2022-10-01T08:29:43.753Z,100593.68
2022-10-01T08:32:15.752Z,100586.59
2022-10-01T08:34:48.262Z,100590.04
2022-10-01T08:37:20.335Z,100585.18
2022-10-01T08:39:52.139Z,100578.81
2022-10-01T08:42:39.588Z,100578.73
2022-10-01T08:45:18.206Z,100575.81
2022-10-01T08:47:59.790Z,100574.71
2022-10-01T08:50:46.711Z,100570.41
2022-10-01T08:53:29.373Z,100572.16
2022-10-01T08:56:03.579Z,100563.65
2022-10-01T08:58:44.074Z,100560.66
2022-10-01T09:01:15.980Z,100555.19
2022-10-01T09:03:47.910Z,100549.58
2022-10-01T09:06:25.218Z,100542.04
2022-10-01T09:09:26.682Z,100532.73
2022-10-01T09:12:14.738Z,100523.79
2022-10-01T09:15:01.433Z,100517.02
2022-10-01T09:17:53.311Z,100514.83
2022-10-01T09:20:30.381Z,100512.16
2022-10-01T09:23:18.216Z,100510.58
2022-10-01T09:25:52.006Z,100506.50
2022-10-01T09:28:26.232Z,100503.11
2022-10-01T09:31:03.014Z,100500.58
2022-10-01T09:33:38.881Z,100496.58
2022-10-01T09:36:19.867Z,100488.68
2022-10-01T09:39:03.245Z,100483.02
2022-10-01T09:41:35.245Z,100485.21
2022-10-01T09:44:07.645Z,100479.91
2022-10-01T09:46:39.689Z,100475.42
2022-10-01T09:49:20.239Z,100469.11
2022-10-01T09:51:58.801Z,100463.19
2022-10-01T09:54:36.629Z,100456.33
2022-10-01T09:57:11.193Z,100450.41
2022-10-01T09:59:50.292Z,100450.18
2022-10-01T10:02:27.991Z,100449.66
2022-10-01T10:05:04.591Z,100450.82
2022-10-01T10:07:42.385Z,100446.88
2022-10-01T10:10:25.531Z,100441.81
2022-10-01T10:13:02.173Z,100442.91
2022-10-01T10:15:34.491Z,100445.41
2022-10-01T10:18:12.096Z,100449.70
2022-10-01T10:20:46.694Z,100446.63
2022-10-01T10:23:21.554Z,100443.97
2022-10-01T10:26:00.907Z,100445.23
2022-10-01T10:28:44.310Z,100443.63
2022-10-01T10:31:22.187Z,100438.02
2022-10-01T10:33:58.017Z,100438.04
2022-10-01T10:36:34.610Z,100436.91
2022-10-01T10:39:16.413Z,100434.77
2022-10-01T10:41:50.779Z,100433.29
2022-10-01T10:44:25.689Z,100429.78
2022-10-01T10:47:03.414Z,100427.32
2022-10-01T10:49:41.900Z,100418.96
2022-10-01T10:52:25.519Z,100418.06
2022-10-01T10:55:01.370Z,100412.89
2022-10-01T10:57:34.672Z,100409.25
2022-10-01T11:00:14.173Z,100404.44
2022-10-01T11:02:55.951Z,100401.95
2022-10-01T11:05:31.972Z,100393.55
2022-10-01T11:08:07.887Z,100394.39
2022-10-01T11:10:49.586Z,100390.38
2022-10-01T11:13:54.116Z,100390.34
2022-10-01T11:16:38.164Z,100384.15
2022-10-01T11:19:28.407Z,100374.14
2022-10-01T11:22:19.706Z,100366.44
2022-10-01T11:25:07.048Z,100362.33
2022-10-01T11:27:49.794Z,100355.34
2022-10-01T11:30:26.228Z,100350.20
2022-10-01T11:33:11.014Z,100345.52
2022-10-01T11:35:56.270Z,100344.96
2022-10-01T11:38:45.046Z,100343.16
2022-10-01T11:41:26.922Z,100334.57
2022-10-01T11:44:02.866Z,100331.80
2022-10-01T11:46:45.702Z,100328.11
2022-10-01T11:49:35.774Z,100327.04
2022-10-01T11:52:13.674Z,100320.16
2022-10-01T11:55:23.853Z,100316.41
2022-10-01T11:58:19.742Z,100307.60
2022-10-01T12:01:01.223Z,100301.92
2022-10-01T12:03:44.016Z,100298.88
2022-10-01T12:06:22.004Z,100296.26
2022-10-01T12:09:03.645Z,100298.45
2022-10-01T12:11:44.068Z,100294.08
2022-10-01T12:14:21.294Z,100286.20
2022-10-01T12:16:57.949Z,100286.17
2022-10-01T12:19:33.980Z,100285.77
2022-10-01T12:22:12.382Z,100283.46
2022-10-01T12:24:45.853Z,100278.09
2022-10-01T12:27:37.399Z,100273.57
2022-10-01T12:30:12.916Z,100272.86
2022-10-01T12:33:01.951Z,100265.98
2022-10-01T12:35:47.717Z,100267.10
2022-10-01T12:38:33.349Z,100271.19
2022-10-01T12:41:16.417Z,100273.27
2022-10-01T12:44:11.199Z,100266.56
2022-10-01T12:46:51.768Z,100265.67
2022-10-01T12:49:32.358Z,100266.21
2022-10-01T12:52:12.862Z,100260.97
2022-10-01T12:55:00.124Z,100254.90
2022-10-01T12:57:44.979Z,100245.52
2022-10-01T13:00:20.744Z,100238.86
2022-10-01T13:03:25.060Z,100238.95
2022-10-01T13:06:09.871Z,100233.65
2022-10-01T13:08:54.662Z,100230.17
2022-10-01T13:11:41.555Z,100229.39
2022-10-01T13:14:16.090Z,100220.80
2022-10-01T13:16:57.072Z,100217.52
2022-10-01T13:19:37.386Z,100217.61
2022-10-01T13:22:17.494Z,100220.29
2022-10-01T13:24:58.266Z,100213.45
2022-10-01T13:27:38.756Z,100208.45
2022-10-01T13:30:20.942Z,100204.35
2022-10-01T13:32:55.776Z,100200.99
2022-10-01T13:35:35.549Z,100196.27
2022-10-01T13:38:18.597Z,100192.02
2022-10-01T13:41:05.395Z,100191.69
2022-10-01T13:43:44.250Z,100190.20
2022-10-01T13:46:16.435Z,100188.52
2022-10-01T13:48:52.571Z,100184.72
2022-10-01T13:51:42.956Z,100178.20
2022-10-01T13:54:28.536Z,100180.44
2022-10-01T13:57:12.819Z,100175.88
2022-10-01T13:59:45.088Z,100172.70
2022-10-01T14:02:35.390Z,100166.57
2022-10-01T14:05:24.083Z,100167.69
2022-10-01T14:08:11.439Z,100168.76
2022-10-01T14:11:07.960Z,100166.17
2022-10-01T14:14:04.913Z,100159.16
2022-10-01T14:16:56.655Z,100158.02
2022-10-01T14:20:19.512Z,100159.80
2022-10-01T14:23:57.855Z,100156.02
2022-10-01T14:27:16.227Z,100145.95
2022-10-01T14:40:48.504Z,100141.36
2022-10-01T14:43:20.761Z,100141.60
2022-10-01T14:45:56.442Z,100135.48
2022-10-01T14:48:31.590Z,100134.87
2022-10-01T14:51:02.169Z,100136.69
2022-10-01T14:53:34.231Z,100133.13
2022-10-01T14:56:07.564Z,100132.33
2022-10-01T14:58:40.309Z,100127.23
2022-10-01T15:01:18.311Z,100123.35
2022-10-01T15:03:48.418Z,100117.93
2022-10-01T15:06:22.406Z,100113.52
2022-10-01T15:08:52.350Z,100112.08
2022-10-01T15:11:24.431Z,100106.25
2022-10-01T15:13:56.546Z,100102.55
2022-10-01T15:16:28.657Z,100097.59
2022-10-01T15:18:59.871Z,100094.05
2022-10-01T15:21:35.199Z,100093.16
2022-10-01T15:24:05.442Z,100087.02
2022-10-01T15:26:34.290Z,100082.63
2022-10-01T15:29:08.771Z,100075.14
2022-10-01T15:31:39.894Z,100071.49
2022-10-01T15:34:12.671Z,100072.58
2022-10-01T15:36:42.193Z,100070.15
2022-10-01T15:39:24.153Z,100073.77
2022-10-01T15:41:54.219Z,100067.11
2022-10-01T15:44:49.459Z,100063.48
2022-10-01T15:47:26.142Z,100067.41
2022-10-01T15:50:15.398Z,100064.97
2022-10-01T15:52:52.527Z,100051.64
2022-10-01T15:55:29.238Z,100052.36
2022-10-01T15:58:05.049Z,100046.78
2022-10-01T16:00:53.917Z,100043.38
2022-10-01T16:03:26.986Z,100041.01
2022-10-01T16:06:03.329Z,100041.98
2022-10-01T16:08:37.256Z,100042.05
2022-10-01T16:11:16.185Z,100037.34
2022-10-01T16:13:46.552Z,100031.60
2022-10-01T16:16:27.181Z,100031.52
2022-10-01T16:18:58.769Z,100030.49
2022-10-01T16:21:39.755Z,100035.33
2022-10-01T16:24:27.999Z,100036.48
2022-10-01T16:27:01.652Z,100034.65
2022-10-01T16:29:30.674Z,100025.58
2022-10-01T16:32:01.027Z,100021.96
2022-10-01T16:34:29.688Z,100024.84
2022-10-01T16:36:58.334Z,100022.43
2022-10-01T16:39:26.976Z,100017.65
2022-10-01T16:42:18.989Z,100020.98
2022-10-01T16:44:44.966Z,100014.34
2022-10-01T16:47:13.406Z,100019.09
2022-10-01T16:49:42.615Z,100016.77
2022-10-01T16:52:15.924Z,100013.55
2022-10-01T16:54:46.840Z,100008.08
2022-10-01T16:57:16.423Z,100012.44
2022-10-01T16:59:45.148Z,100006.58
2022-10-01T17:02:15.120Z,100002.41
2022-10-01T17:04:44.278Z,100009.65
2022-10-01T17:07:14.971Z,100011.40
2022-10-01T17:09:43.604Z,100015.57
2022-10-01T17:12:12.207Z,100015.94
2022-10-01T17:14:40.852Z,100021.61
2022-10-01T17:17:09.325Z,100052.70
2022-10-01T17:19:38.093Z,100074.55
2022-10-01T17:22:08.224Z,100088.77
2022-10-01T17:24:39.722Z,100087.80
2022-10-01T17:27:10.877Z,100086.91
2022-10-01T17:29:39.510Z,100082.48
2022-10-01T17:32:51.088Z,100084.01
2022-10-01T17:35:30.023Z,100084.41
2022-10-01T17:38:28.340Z,100087.69
2022-10-01T17:40:59.205Z,100084.48
2022-10-01T17:43:42.594Z,100087.43
2022-10-01T17:46:14.407Z,100081.23
2022-10-01T17:48:42.967Z,100080.67
2022-10-01T17:51:13.738Z,100078.50
2022-10-01T17:53:42.940Z,100074.65
2022-10-01T17:56:15.724Z,100073.65
2022-10-01T17:58:46.057Z,100071.05
2022-10-01T18:01:21.533Z,100067.70
2022-10-01T18:03:55.173Z,100072.96
2022-10-01T18:06:24.545Z,100068.23
2022-10-01T18:08:55.994Z,100070.92
2022-10-01T18:11:29.224Z,100071.10
2022-10-01T18:14:26.463Z,100073.79
2022-10-01T18:33:03.657Z,100065.17
2022-10-01T18:35:37.017Z,100061.90
2022-10-01T18:38:20.636Z,100061.08
2022-10-01T18:40:58.728Z,100057.10
2022-10-01T18:43:37.887Z,100054.73
2022-10-01T18:46:21.283Z,100056.95
2022-10-01T18:49:04.440Z,100056.38
2022-10-01T18:51:53.389Z,100060.04
2022-10-01T18:54:43.206Z,100056.52
2022-10-01T18:57:31.597Z,100053.34
2022-10-01T19:00:13.098Z,100052.70
2022-10-01T19:03:04.340Z,100049.38
2022-10-01T19:06:15.060Z,100051.24
2022-10-01T19:09:18.443Z,100051.09
2022-10-01T19:12:01.880Z,100048.17
2022-10-01T19:14:52.010Z,100045.98
2022-10-01T19:17:38.976Z,100045.89
2022-10-01T19:20:25.142Z,100044.92
2022-10-01T19:23:11.313Z,100039.73
2022-10-01T19:25:52.235Z,100040.95
2022-10-01T19:28:37.148Z,100040.05
2022-10-01T19:31:20.948Z,100042.48
2022-10-01T19:34:06.363Z,100043.14
2022-10-01T19:36:44.453Z,100045.38
2022-10-01T19:39:23.303Z,100043.81
2022-10-01T19:41:59.525Z,100044.27
2022-10-01T19:44:38.387Z,100043.54
2022-10-01T19:47:32.274Z,100043.99
2022-10-01T19:50:20.542Z,100042.20
2022-10-01T19:52:54.118Z,100043.06
2022-10-01T19:55:33.995Z,100037.36
2022-10-01T19:58:22.042Z,100037.82
2022-10-01T20:00:57.760Z,100035.63
2022-10-01T20:03:37.173Z,100038.93
2022-10-01T20:06:19.544Z,100036.77
2022-10-01T20:08:55.841Z,100038.94
2022-10-01T20:11:32.340Z,100037.36
2022-10-01T20:14:40.331Z,100041.07
2022-10-01T20:17:23.979Z,100039.13
2022-10-01T20:20:04.923Z,100042.33
2022-10-01T20:22:42.290Z,100039.88
2022-10-01T20:25:24.273Z,100037.20
2022-10-01T20:28:05.134Z,100038.96
2022-10-01T20:30:50.898Z,100046.74
2022-10-01T20:33:36.024Z,100043.59
2022-10-01T20:36:13.575Z,100042.51
2022-10-01T20:38:50.844Z,100045.35
2022-10-01T20:41:25.820Z,100046.05
2022-10-01T20:44:05.778Z,100048.70
2022-10-01T20:46:44.450Z,100049.79
2022-10-01T20:49:27.357Z,100048.26
2022-10-01T20:52:05.467Z,100048.80
2022-10-01T20:54:42.435Z,100045.49
2022-10-01T20:57:22.295Z,100048.34
2022-10-01T20:59:59.168Z,100049.08
2022-10-01T21:02:41.195Z,100048.51
2022-10-01T21:05:17.771Z,100054.01
2022-10-01T21:07:58.544Z,100051.71
2022-10-01T21:10:36.461Z,100052.97
2022-10-01T21:13:15.632Z,100050.16
2022-10-01T21:15:59.275Z,100055.33
2022-10-01T21:18:44.308Z,100058.89
2022-10-01T21:21:32.188Z,100056.74
2022-10-01T21:24:18.086Z,100055.20
2022-10-01T21:27:02.767Z,100059.03
2022-10-01T21:30:09.306Z,100060.63
2022-10-01T21:33:02.619Z,100059.91
2022-10-01T21:35:43.227Z,100062.55
2022-10-01T21:38:28.671Z,100062.70
2022-10-01T21:41:19.193Z,100063.43
2022-10-01T21:44:08.874Z,100065.73
2022-10-01T21:46:49.740Z,100065.75
2022-10-01T21:49:32.680Z,100061.91
2022-10-01T21:52:16.589Z,100063.34
2022-10-01T21:55:06.931Z,100066.16
2022-10-01T21:57:55.469Z,100063.70
2022-10-01T22:00:29.590Z,100066.00
2022-10-01T22:03:12.179Z,100062.99
2022-10-01T22:05:50.761Z,100063.13
2022-10-01T22:08:36.655Z,100063.51
2022-10-01T22:11:16.005Z,100068.98
2022-10-01T22:13:52.508Z,100070.58
2022-10-01T22:16:28.256Z,100071.61
2022-10-01T22:19:06.332Z,100075.27
2022-10-01T22:21:42.719Z,100078.24
2022-10-01T22:24:18.429Z,100081.98
2022-10-01T22:26:55.670Z,100078.30
2022-10-01T22:29:31.438Z,100079.17
2022-10-01T22:32:05.847Z,100079.53
2022-10-01T22:34:42.176Z,100080.30
2022-10-01T22:37:21.952Z,100082.70
2022-10-01T22:39:58.832Z,100085.27
2022-10-01T22:42:36.268Z,100088.88
2022-10-01T22:45:16.542Z,100088.23
2022-10-01T22:48:04.322Z,100094.55
2022-10-01T22:50:52.918Z,100099.27
2022-10-01T22:53:39.895Z,100097.02
2022-10-01T22:56:16.315Z,100096.30
2022-10-01T22:59:01.609Z,100100.86
2022-10-01T23:01:42.198Z,100107.92
2022-10-01T23:04:29.469Z,100113.59
2022-10-01T23:07:12.133Z,100114.11
2022-10-01T23:09:55.149Z,100111.30
2022-10-01T23:12:38.637Z,100112.56
2022-10-01T23:15:28.345Z,100112.58
2022-10-01T23:18:08.926Z,100113.54
2022-10-01T23:20:46.326Z,100121.85
2022-10-01T23:23:32.238Z,100121.67
2022-10-01T23:26:27.474Z,100118.69
2022-10-01T23:29:20.135Z,100122.76
2022-10-01T23:32:01.283Z,100121.71
2022-10-01T23:34:44.377Z,100124.02
2022-10-01T23:37:32.091Z,100128.11
2022-10-01T23:40:09.198Z,100131.70
2022-10-01T23:42:50.585Z,100129.77
2022-10-01T23:45:29.304Z,100135.44
2022-10-01T23:48:09.727Z,100138.09
2022-10-01T23:50:46.155Z,100139.20
2022-10-01T23:53:22.277Z,100141.17
2022-10-01T23:56:19.648Z,100144.19
2022-10-01T23:58:58.256Z,100147.59
